Proud — 9HWA9 — position and weather

sailwx.info

Track history (hours):
 
Tides and Currents Weather Stations Pressure Air Temp Water Temp Dewpoint Dewpoint Depression Visibility Wind Speed Wind Dir Waves Ship Positions

Proud

Last reported at 2016-Aug-30 16:10 UTC. Time now 2016-Aug-31 23:35 UTC.
Position S 29°13' E 043°53'.

Length 292 m; draft 17.8 m.

Type: Cargo ship. MMSI: 249619000.

Date/timePositionNaut miles runAvg speedWind from/ knotsBaromVisibWave heightAir tempDewpointWater temp
2016-Aug-30 16:10S 29°13' E 043°53'711.3
2016-Aug-30 15:33S 29°16' E 043°46'1111.3
2016-Aug-30 14:33S 29°20' E 043°34'1111.3
2016-Aug-30 13:34S 29°26' E 043°23'2311.0
2016-Aug-30 11:30S 29°37' E 043°01'1010.4
2016-Aug-30 10:32S 29°42' E 042°51'1010.2
2016-Aug-30 09:33S 29°47' E 042°40'1010.4
2016-Aug-30 08:33S 29°51' E 042°29'1110.6
2016-Aug-30 07:33S 29°56' E 042°19'1110.5
2016-Aug-30 06:30S 30°01' E 042°07'2310.5
2016-Aug-30 04:19S 30°13' E 041°44'11110.0
2016-Aug-29 17:13S 31°03' E 039°50'710.1
2016-Aug-29 16:33S 31°05' E 039°42'1010.2
2016-Aug-29 15:32S 31°09' E 039°31'1010.2
2016-Aug-29 14:31S 31°12' E 039°20'1110.4
2016-Aug-29 13:30S 31°16' E 039°08'1010.4
2016-Aug-29 12:33S 31°20' E 038°57'1010.5
2016-Aug-29 11:33S 31°24' E 038°46'1010.5
2016-Aug-29 10:33S 31°28' E 038°34'1410.3
2016-Aug-29 09:11S 31°32' E 038°19'2610.0
2016-Aug-29 06:33S 31°40' E 037°49'7410.5
2016-Aug-28 23:30S 32°06' E 036°28'10 9.8
2016-Aug-28 22:29S 32°08' E 036°16'17 8.9
2016-Aug-28 20:31S 32°13' E 035°57'48 9.7
2016-Aug-28 15:30S 32°31' E 035°03'1010.0
2016-Aug-28 14:33S 32°35' E 034°53'1110.4
2016-Aug-28 13:27S 32°39' E 034°40'910.0
2016-Aug-28 12:33S 32°41' E 034°30'1110.3
2016-Aug-28 11:30S 32°45' E 034°18'1010.1
2016-Aug-28 10:33S 32°48' E 034°07'102 9.3
2016-Aug-27 23:32S 33°20' E 032°11'  
Track history (hours):
 
Tides and Currents Weather Stations Pressure Air Temp Water Temp Dewpoint Dewpoint Depression Visibility Wind Speed Wind Dir Waves Ship Positions

Proud

Last reported at 2016-Aug-30 16:10 UTC. Time now 2016-Aug-31 23:35 UTC.
Position S 29°13' E 043°53'.

Length 292 m; draft 17.8 m.

Type: Cargo ship. MMSI: 249619000.

Date/timePositionNaut miles runAvg speedWind from/ knotsBaromVisibWave heightAir tempDewpointWater temp
2016-Aug-30 16:10S 29°13' E 043°53'711.3
2016-Aug-30 15:33S 29°16' E 043°46'1111.3
2016-Aug-30 14:33S 29°20' E 043°34'1111.3
2016-Aug-30 13:34S 29°26' E 043°23'2311.0
2016-Aug-30 11:30S 29°37' E 043°01'1010.4
2016-Aug-30 10:32S 29°42' E 042°51'1010.2
2016-Aug-30 09:33S 29°47' E 042°40'1010.4
2016-Aug-30 08:33S 29°51' E 042°29'1110.6
2016-Aug-30 07:33S 29°56' E 042°19'1110.5
2016-Aug-30 06:30S 30°01' E 042°07'2310.5
2016-Aug-30 04:19S 30°13' E 041°44'11110.0
2016-Aug-29 17:13S 31°03' E 039°50'710.1
2016-Aug-29 16:33S 31°05' E 039°42'1010.2
2016-Aug-29 15:32S 31°09' E 039°31'1010.2
2016-Aug-29 14:31S 31°12' E 039°20'1110.4
2016-Aug-29 13:30S 31°16' E 039°08'1010.4
2016-Aug-29 12:33S 31°20' E 038°57'1010.5
2016-Aug-29 11:33S 31°24' E 038°46'1010.5
2016-Aug-29 10:33S 31°28' E 038°34'1410.3
2016-Aug-29 09:11S 31°32' E 038°19'2610.0
2016-Aug-29 06:33S 31°40' E 037°49'7410.5
2016-Aug-28 23:30S 32°06' E 036°28'10 9.8
2016-Aug-28 22:29S 32°08' E 036°16'17 8.9
2016-Aug-28 20:31S 32°13' E 035°57'48 9.7
2016-Aug-28 15:30S 32°31' E 035°03'1010.0
2016-Aug-28 14:33S 32°35' E 034°53'1110.4
2016-Aug-28 13:27S 32°39' E 034°40'910.0
2016-Aug-28 12:33S 32°41' E 034°30'1110.3
2016-Aug-28 11:30S 32°45' E 034°18'1010.1
2016-Aug-28 10:33S 32°48' E 034°07'102 9.3
2016-Aug-27 23:32S 33°20' E 032°11'  

Dump ship's entire track history